sensor_id;sensor_type;location;lat;lon;timestamp;pressure;altitude;pressure_sealevel;temperature;humidity
33404;BME280;19751;40.274;18.268;2022-08-21T00:02:27;100514.66;;;24.04;90.24
33404;BME280;19751;40.274;18.268;2022-08-21T00:04:53;100509.72;;;24.01;90.34
33404;BME280;19751;40.274;18.268;2022-08-21T00:07:19;100505.88;;;24.02;90.23
33404;BME280;19751;40.274;18.268;2022-08-21T00:09:46;100506.44;;;23.99;90.46
33404;BME280;19751;40.274;18.268;2022-08-21T00:12:12;100500.38;;;23.97;90.64
33404;BME280;19751;40.274;18.268;2022-08-21T00:14:40;100494.88;;;23.97;90.82
33404;BME280;19751;40.274;18.268;2022-08-21T00:17:06;100500.94;;;23.99;90.66
33404;BME280;19751;40.274;18.268;2022-08-21T00:19:32;100501.75;;;23.99;90.53
33404;BME280;19751;40.274;18.268;2022-08-21T00:21:57;100500.94;;;23.99;90.48
33404;BME280;19751;40.274;18.268;2022-08-21T00:24:24;100497.59;;;24.07;90.50
33404;BME280;19751;40.274;18.268;2022-08-21T00:26:50;100487.09;;;24.14;89.90
33404;BME280;19751;40.274;18.268;2022-08-21T00:29:16;100493.94;;;24.17;89.81
33404;BME280;19751;40.274;18.268;2022-08-21T00:31:43;100484.88;;;24.16;89.69
33404;BME280;19751;40.274;18.268;2022-08-21T00:34:10;100481.91;;;24.08;89.92
33404;BME280;19751;40.274;18.268;2022-08-21T00:36:36;100482.75;;;24.03;90.31
33404;BME280;19751;40.274;18.268;2022-08-21T00:39:04;100476.16;;;24.04;90.34
33404;BME280;19751;40.274;18.268;2022-08-21T00:41:30;100478.03;;;24.09;90.07
33404;BME280;19751;40.274;18.268;2022-08-21T00:43:56;100472.75;;;24.17;89.88
33404;BME280;19751;40.274;18.268;2022-08-21T00:46:22;100477.94;;;24.24;89.44
33404;BME280;19751;40.274;18.268;2022-08-21T00:48:48;100468.50;;;24.30;88.98
33404;BME280;19751;40.274;18.268;2022-08-21T00:51:17;100471.25;;;24.35;88.83
33404;BME280;19751;40.274;18.268;2022-08-21T00:53:50;100472.59;;;24.43;88.53
33404;BME280;19751;40.274;18.268;2022-08-21T00:56:19;100474.75;;;24.46;88.19
33404;BME280;19751;40.274;18.268;2022-08-21T00:58:46;100469.81;;;24.48;87.87
33404;BME280;19751;40.274;18.268;2022-08-21T01:01:12;100467.56;;;24.50;87.58
33404;BME280;19751;40.274;18.268;2022-08-21T01:03:38;100467.94;;;24.38;87.47
33404;BME280;19751;40.274;18.268;2022-08-21T01:06:04;100464.38;;;24.33;87.88
33404;BME280;19751;40.274;18.268;2022-08-21T01:08:31;100463.84;;;24.30;88.19
33404;BME280;19751;40.274;18.268;2022-08-21T01:10:58;100463.09;;;24.20;88.02
33404;BME280;19751;40.274;18.268;2022-08-21T01:13:25;100461.28;;;24.05;88.63
33404;BME280;19751;40.274;18.268;2022-08-21T01:15:54;100460.53;;;23.94;89.53
33404;BME280;19751;40.274;18.268;2022-08-21T01:18:20;100458.91;;;23.88;89.56
33404;BME280;19751;40.274;18.268;2022-08-21T01:21:10;100463.59;;;23.88;89.94
33404;BME280;19751;40.274;18.268;2022-08-21T01:23:38;100452.59;;;23.88;89.98
33404;BME280;19751;40.274;18.268;2022-08-21T01:26:05;100452.06;;;23.86;90.15
33404;BME280;19751;40.274;18.268;2022-08-21T01:28:34;100455.91;;;23.85;90.04
33404;BME280;19751;40.274;18.268;2022-08-21T01:31:05;100447.94;;;23.83;89.90
33404;BME280;19751;40.274;18.268;2022-08-21T01:33:30;100448.00;;;23.78;90.22
33404;BME280;19751;40.274;18.268;2022-08-21T01:35:56;100451.03;;;23.76;90.30
33404;BME280;19751;40.274;18.268;2022-08-21T01:38:22;100445.53;;;23.71;90.58
33404;BME280;19751;40.274;18.268;2022-08-21T01:40:48;100445.84;;;23.70;90.61
33404;BME280;19751;40.274;18.268;2022-08-21T01:43:13;100445.03;;;23.69;90.61
33404;BME280;19751;40.274;18.268;2022-08-21T01:45:39;100445.84;;;23.65;90.60
33404;BME280;19751;40.274;18.268;2022-08-21T01:48:04;100437.84;;;23.73;90.67
33404;BME280;19751;40.274;18.268;2022-08-21T01:50:31;100439.69;;;23.83;90.37
33404;BME280;19751;40.274;18.268;2022-08-21T01:52:56;100430.00;;;23.96;89.71
33404;BME280;19751;40.274;18.268;2022-08-21T01:55:23;100434.63;;;24.00;89.42
33404;BME280;19751;40.274;18.268;2022-08-21T01:57:48;100427.75;;;24.03;88.96
33404;BME280;19751;40.274;18.268;2022-08-21T02:00:17;100428.00;;;24.06;88.86
33404;BME280;19751;40.274;18.268;2022-08-21T02:02:43;100428.25;;;24.10;88.66
33404;BME280;19751;40.274;18.268;2022-08-21T02:05:10;100427.66;;;24.13;88.43
33404;BME280;19751;40.274;18.268;2022-08-21T02:07:42;100421.56;;;24.16;88.13
33404;BME280;19751;40.274;18.268;2022-08-21T02:10:09;100419.66;;;24.17;88.04
33404;BME280;19751;40.274;18.268;2022-08-21T02:12:35;100419.91;;;24.20;87.87
33404;BME280;19751;40.274;18.268;2022-08-21T02:15:00;100427.03;;;24.21;87.82
33404;BME280;19751;40.274;18.268;2022-08-21T02:17:26;100420.47;;;24.17;87.48
33404;BME280;19751;40.274;18.268;2022-08-21T02:19:52;100418.88;;;24.11;87.57
33404;BME280;19751;40.274;18.268;2022-08-21T02:22:17;100420.00;;;24.10;87.83
33404;BME280;19751;40.274;18.268;2022-08-21T02:24:43;100415.97;;;23.97;88.18
33404;BME280;19751;40.274;18.268;2022-08-21T02:27:09;100416.03;;;23.87;88.76
33404;BME280;19751;40.274;18.268;2022-08-21T02:29:34;100420.50;;;23.78;89.29
33404;BME280;19751;40.274;18.268;2022-08-21T02:32:00;100424.91;;;23.74;89.58
33404;BME280;19751;40.274;18.268;2022-08-21T02:34:25;100413.63;;;23.75;89.77
33404;BME280;19751;40.274;18.268;2022-08-21T02:36:51;100419.69;;;23.77;89.64
33404;BME280;19751;40.274;18.268;2022-08-21T02:39:16;100415.00;;;23.78;89.68
33404;BME280;19751;40.274;18.268;2022-08-21T02:41:42;100412.50;;;23.81;89.50
33404;BME280;19751;40.274;18.268;2022-08-21T02:44:07;100416.59;;;23.84;89.45
33404;BME280;19751;40.274;18.268;2022-08-21T02:46:33;100415.19;;;23.87;89.13
33404;BME280;19751;40.274;18.268;2022-08-21T02:48:58;100416.03;;;23.87;88.92
33404;BME280;19751;40.274;18.268;2022-08-21T02:51:24;100414.13;;;23.83;88.97
33404;BME280;19751;40.274;18.268;2022-08-21T02:53:51;100418.25;;;23.85;88.86
33404;BME280;19751;40.274;18.268;2022-08-21T02:56:18;100415.78;;;23.84;88.88
33404;BME280;19751;40.274;18.268;2022-08-21T02:58:49;100416.94;;;23.77;88.90
33404;BME280;19751;40.274;18.268;2022-08-21T03:01:17;100418.03;;;23.71;89.22
33404;BME280;19751;40.274;18.268;2022-08-21T03:03:45;100411.19;;;23.64;89.49
33404;BME280;19751;40.274;18.268;2022-08-21T03:06:14;100421.66;;;23.62;89.55
33404;BME280;19751;40.274;18.268;2022-08-21T03:08:40;100414.78;;;23.59;89.70
33404;BME280;19751;40.274;18.268;2022-08-21T03:11:07;100417.00;;;23.57;90.00
33404;BME280;19751;40.274;18.268;2022-08-21T03:13:33;100416.19;;;23.56;89.98
33404;BME280;19751;40.274;18.268;2022-08-21T03:15:58;100411.56;;;23.52;89.93
33404;BME280;19751;40.274;18.268;2022-08-21T03:18:24;100421.47;;;23.48;90.00
33404;BME280;19751;40.274;18.268;2022-08-21T03:20:50;100422.56;;;23.47;89.91
33404;BME280;19751;40.274;18.268;2022-08-21T03:23:17;100419.84;;;23.42;90.16
33404;BME280;19751;40.274;18.268;2022-08-21T03:25:43;100421.78;;;23.41;90.36
33404;BME280;19751;40.274;18.268;2022-08-21T03:28:12;100422.06;;;23.35;90.34
33404;BME280;19751;40.274;18.268;2022-08-21T03:30:43;100418.28;;;23.20;91.00
33404;BME280;19751;40.274;18.268;2022-08-21T03:33:10;100416.69;;;23.09;91.85
33404;BME280;19751;40.274;18.268;2022-08-21T03:35:36;100419.44;;;23.04;92.30
33404;BME280;19751;40.274;18.268;2022-08-21T03:38:02;100420.00;;;23.01;92.73
33404;BME280;19751;40.274;18.268;2022-08-21T03:40:28;100415.63;;;23.00;92.46
33404;BME280;19751;40.274;18.268;2022-08-21T03:42:54;100425.25;;;23.02;92.81
33404;BME280;19751;40.274;18.268;2022-08-21T03:45:20;100420.59;;;22.98;92.84
33404;BME280;19751;40.274;18.268;2022-08-21T03:48:00;100421.13;;;22.90;93.55
33404;BME280;19751;40.274;18.268;2022-08-21T03:50:30;100422.78;;;22.86;93.90
33404;BME280;19751;40.274;18.268;2022-08-21T03:52:56;100431.00;;;22.80;94.39
33404;BME280;19751;40.274;18.268;2022-08-21T03:55:23;100430.50;;;22.73;94.94
33404;BME280;19751;40.274;18.268;2022-08-21T03:57:49;100439.25;;;22.80;94.96
33404;BME280;19751;40.274;18.268;2022-08-21T04:00:15;100437.59;;;22.84;94.32
33404;BME280;19751;40.274;18.268;2022-08-21T04:02:42;100438.19;;;22.81;94.47
33404;BME280;19751;40.274;18.268;2022-08-21T04:05:09;100433.22;;;22.78;94.35
33404;BME280;19751;40.274;18.268;2022-08-21T04:07:35;100437.91;;;22.78;94.59
33404;BME280;19751;40.274;18.268;2022-08-21T04:10:01;100436.00;;;22.73;94.40
33404;BME280;19751;40.274;18.268;2022-08-21T04:12:27;100439.28;;;22.75;94.54
33404;BME280;19751;40.274;18.268;2022-08-21T04:14:53;100438.16;;;22.76;94.26
33404;BME280;19751;40.274;18.268;2022-08-21T04:17:18;100444.50;;;22.77;94.06
33404;BME280;19751;40.274;18.268;2022-08-21T04:19:44;100444.50;;;22.72;93.91
33404;BME280;19751;40.274;18.268;2022-08-21T04:22:10;100440.66;;;22.68;94.07
33404;BME280;19751;40.274;18.268;2022-08-21T04:24:35;100435.16;;;22.78;94.04
33404;BME280;19751;40.274;18.268;2022-08-21T04:27:01;100443.34;;;22.88;93.45
33404;BME280;19751;40.274;18.268;2022-08-21T04:29:26;100448.59;;;22.90;92.39
33404;BME280;19751;40.274;18.268;2022-08-21T04:31:52;100443.09;;;22.95;92.38
33404;BME280;19751;40.274;18.268;2022-08-21T04:34:18;100444.22;;;22.94;91.96
33404;BME280;19751;40.274;18.268;2022-08-21T04:36:44;100442.03;;;22.91;91.97
33404;BME280;19751;40.274;18.268;2022-08-21T04:39:09;100445.00;;;22.84;91.48
33404;BME280;19751;40.274;18.268;2022-08-21T04:41:35;100440.91;;;22.76;91.97
33404;BME280;19751;40.274;18.268;2022-08-21T04:44:02;100446.97;;;22.73;92.08
33404;BME280;19751;40.274;18.268;2022-08-21T04:46:28;100443.13;;;22.64;92.02
33404;BME280;19751;40.274;18.268;2022-08-21T04:48:54;100444.22;;;22.68;92.19
33404;BME280;19751;40.274;18.268;2022-08-21T04:51:26;100446.97;;;22.68;91.26
33404;BME280;19751;40.274;18.268;2022-08-21T04:53:59;100450.25;;;22.70;91.15
33404;BME280;19751;40.274;18.268;2022-08-21T04:56:39;100452.47;;;22.73;90.65
33404;BME280;19751;40.274;18.268;2022-08-21T04:59:12;100451.88;;;22.76;89.89
33404;BME280;19751;40.274;18.268;2022-08-21T05:01:39;100445.31;;;22.77;89.56
33404;BME280;19751;40.274;18.268;2022-08-21T05:04:08;100449.16;;;22.76;89.49
33404;BME280;19751;40.274;18.268;2022-08-21T05:06:36;100456.84;;;22.79;88.94
33404;BME280;19751;40.274;18.268;2022-08-21T05:09:04;100455.47;;;22.82;88.30
33404;BME280;19751;40.274;18.268;2022-08-21T05:11:31;100457.38;;;22.87;88.13
33404;BME280;19751;40.274;18.268;2022-08-21T05:13:58;100450.78;;;22.93;87.79
33404;BME280;19751;40.274;18.268;2022-08-21T05:16:23;100449.69;;;22.99;86.84
33404;BME280;19751;40.274;18.268;2022-08-21T05:18:49;100456.28;;;23.03;86.08
33404;BME280;19751;40.274;18.268;2022-08-21T05:21:15;100456.25;;;23.08;85.70
33404;BME280;19751;40.274;18.268;2022-08-21T05:23:41;100454.59;;;23.12;85.40
33404;BME280;19751;40.274;18.268;2022-08-21T05:26:08;100452.41;;;23.14;84.49
33404;BME280;19751;40.274;18.268;2022-08-21T05:28:33;100462.81;;;23.17;84.51
33404;BME280;19751;40.274;18.268;2022-08-21T05:30:59;100455.13;;;23.19;84.15
33404;BME280;19751;40.274;18.268;2022-08-21T05:33:24;100447.13;;;23.28;83.88
33404;BME280;19751;40.274;18.268;2022-08-21T05:35:51;100451.22;;;23.36;82.87
33404;BME280;19751;40.274;18.268;2022-08-21T05:38:18;100460.81;;;23.43;82.63
33404;BME280;19751;40.274;18.268;2022-08-21T05:40:44;100460.78;;;23.48;82.55
33404;BME280;19751;40.274;18.268;2022-08-21T05:43:10;100456.06;;;23.54;81.81
33404;BME280;19751;40.274;18.268;2022-08-21T05:45:36;100455.19;;;23.64;81.50
33404;BME280;19751;40.274;18.268;2022-08-21T05:48:09;100460.13;;;23.72;81.03
33404;BME280;19751;40.274;18.268;2022-08-21T05:50:34;100451.59;;;23.73;80.86
33404;BME280;19751;40.274;18.268;2022-08-21T05:53:02;100450.44;;;23.79;80.81
33404;BME280;19751;40.274;18.268;2022-08-21T05:55:28;100446.84;;;23.84;80.84
33404;BME280;19751;40.274;18.268;2022-08-21T05:57:53;100449.28;;;23.91;80.20
33404;BME280;19751;40.274;18.268;2022-08-21T06:00:19;100445.41;;;23.92;80.21
33404;BME280;19751;40.274;18.268;2022-08-21T06:02:45;100443.47;;;23.97;80.07
33404;BME280;19751;40.274;18.268;2022-08-21T06:05:10;100446.69;;;24.10;79.91
33404;BME280;19751;40.274;18.268;2022-08-21T06:07:36;100448.78;;;24.18;79.36
33404;BME280;19751;40.274;18.268;2022-08-21T06:10:02;100439.09;;;24.25;79.17
33404;BME280;19751;40.274;18.268;2022-08-21T06:12:28;100445.69;;;24.29;78.97
33404;BME280;19751;40.274;18.268;2022-08-21T06:14:53;100442.91;;;24.35;79.02
33404;BME280;19751;40.274;18.268;2022-08-21T06:17:19;100436.81;;;24.43;79.13
33404;BME280;19751;40.274;18.268;2022-08-21T06:19:45;100440.63;;;24.47;79.20
33404;BME280;19751;40.274;18.268;2022-08-21T06:22:10;100432.06;;;24.48;79.69
33404;BME280;19751;40.274;18.268;2022-08-21T06:24:36;100434.19;;;24.57;79.42
33404;BME280;19751;40.274;18.268;2022-08-21T06:27:07;100434.97;;;24.62;79.82
33404;BME280;19751;40.274;18.268;2022-08-21T06:29:34;100434.63;;;24.69;79.41
33404;BME280;19751;40.274;18.268;2022-08-21T06:32:00;100435.38;;;24.74;78.97
33404;BME280;19751;40.274;18.268;2022-08-21T06:34:26;100431.75;;;24.79;78.72
33404;BME280;19751;40.274;18.268;2022-08-21T06:36:52;100429.25;;;24.83;78.79
33404;BME280;19751;40.274;18.268;2022-08-21T06:39:17;100433.53;;;24.94;78.62
33404;BME280;19751;40.274;18.268;2022-08-21T06:41:43;100426.56;;;25.01;78.11
33404;BME280;19751;40.274;18.268;2022-08-21T06:44:09;100431.72;;;25.08;78.27
33404;BME280;19751;40.274;18.268;2022-08-21T06:46:34;100421.19;;;25.15;77.48
33404;BME280;19751;40.274;18.268;2022-08-21T06:49:00;100431.31;;;25.20;77.51
33404;BME280;19751;40.274;18.268;2022-08-21T06:51:26;100433.44;;;25.28;77.50
33404;BME280;19751;40.274;18.268;2022-08-21T06:53:52;100433.09;;;25.35;77.00
33404;BME280;19751;40.274;18.268;2022-08-21T06:56:18;100434.38;;;25.42;76.87
33404;BME280;19751;40.274;18.268;2022-08-21T06:58:44;100428.47;;;25.49;76.54
33404;BME280;19751;40.274;18.268;2022-08-21T07:01:09;100427.31;;;25.55;76.29
33404;BME280;19751;40.274;18.268;2022-08-21T07:03:39;100429.97;;;25.60;75.92
33404;BME280;19751;40.274;18.268;2022-08-21T07:06:06;100423.25;;;25.66;75.69
33404;BME280;19751;40.274;18.268;2022-08-21T07:08:33;100429.22;;;25.73;75.65
33404;BME280;19751;40.274;18.268;2022-08-21T07:11:01;100437.47;;;25.78;75.79
33404;BME280;19751;40.274;18.268;2022-08-21T07:13:28;100438.41;;;25.88;75.97
33404;BME280;19751;40.274;18.268;2022-08-21T07:15:53;100427.00;;;25.94;76.30
33404;BME280;19751;40.274;18.268;2022-08-21T07:18:19;100423.06;;;26.00;77.52
33404;BME280;19751;40.274;18.268;2022-08-21T07:20:45;100418.28;;;26.06;77.88
33404;BME280;19751;40.274;18.268;2022-08-21T07:23:21;100424.53;;;26.12;77.31
33404;BME280;19751;40.274;18.268;2022-08-21T07:25:48;100421.69;;;26.17;77.41
33404;BME280;19751;40.274;18.268;2022-08-21T07:28:13;100411.97;;;26.19;77.00
33404;BME280;19751;40.274;18.268;2022-08-21T07:30:39;100419.66;;;26.22;76.69
33404;BME280;19751;40.274;18.268;2022-08-21T07:33:04;100413.84;;;26.24;76.46
33404;BME280;19751;40.274;18.268;2022-08-21T07:35:30;100415.41;;;26.30;76.35
33404;BME280;19751;40.274;18.268;2022-08-21T07:37:58;100417.25;;;26.35;76.43
33404;BME280;19751;40.274;18.268;2022-08-21T07:40:23;100423.81;;;26.39;76.40
33404;BME280;19751;40.274;18.268;2022-08-21T07:42:49;100417.47;;;26.38;76.01
33404;BME280;19751;40.274;18.268;2022-08-21T07:45:21;100413.91;;;26.38;75.36
33404;BME280;19751;40.274;18.268;2022-08-21T07:47:49;100406.66;;;26.42;75.21
33404;BME280;19751;40.274;18.268;2022-08-21T07:50:16;100416.28;;;26.44;75.03
33404;BME280;19751;40.274;18.268;2022-08-21T07:52:42;100411.47;;;26.50;74.96
33404;BME280;19751;40.274;18.268;2022-08-21T07:55:14;100413.53;;;26.58;74.79
33404;BME280;19751;40.274;18.268;2022-08-21T07:57:41;100417.31;;;26.62;73.61
33404;BME280;19751;40.274;18.268;2022-08-21T08:00:10;100420.09;;;26.62;73.39
33404;BME280;19751;40.274;18.268;2022-08-21T08:02:36;100413.69;;;26.67;72.84
33404;BME280;19751;40.274;18.268;2022-08-21T08:05:08;100417.53;;;26.66;72.51
33404;BME280;19751;40.274;18.268;2022-08-21T08:07:34;100418.06;;;26.68;72.52
33404;BME280;19751;40.274;18.268;2022-08-21T08:10:01;100405.56;;;26.70;72.39
33404;BME280;19751;40.274;18.268;2022-08-21T08:12:26;100402.81;;;26.70;71.16
33404;BME280;19751;40.274;18.268;2022-08-21T08:14:59;100398.63;;;26.73;71.49
33404;BME280;19751;40.274;18.268;2022-08-21T08:17:25;100408.75;;;26.77;71.67
33404;BME280;19751;40.274;18.268;2022-08-21T08:19:51;100402.19;;;26.87;70.92
33404;BME280;19751;40.274;18.268;2022-08-21T08:22:18;100398.44;;;26.97;70.20
33404;BME280;19751;40.274;18.268;2022-08-21T08:24:45;100413.78;;;27.03;70.81
33404;BME280;19751;40.274;18.268;2022-08-21T08:27:11;100410.19;;;27.02;66.19
33404;BME280;19751;40.274;18.268;2022-08-21T08:29:37;100399.97;;;27.03;66.42
33404;BME280;19751;40.274;18.268;2022-08-21T08:32:03;100402.63;;;27.08;66.60
33404;BME280;19751;40.274;18.268;2022-08-21T08:34:29;100401.75;;;27.13;66.81
33404;BME280;19751;40.274;18.268;2022-08-21T08:36:55;100394.66;;;27.20;66.53
33404;BME280;19751;40.274;18.268;2022-08-21T08:39:23;100392.50;;;27.31;65.62
33404;BME280;19751;40.274;18.268;2022-08-21T08:41:48;100394.84;;;27.38;65.94
33404;BME280;19751;40.274;18.268;2022-08-21T08:44:16;100395.06;;;27.41;66.38
33404;BME280;19751;40.274;18.268;2022-08-21T08:46:47;100396.47;;;27.39;66.59
33404;BME280;19751;40.274;18.268;2022-08-21T08:49:21;100383.78;;;27.38;65.79
33404;BME280;19751;40.274;18.268;2022-08-21T08:51:53;100387.66;;;27.37;65.41
33404;BME280;19751;40.274;18.268;2022-08-21T08:54:48;100394.53;;;27.39;64.55
33404;BME280;19751;40.274;18.268;2022-08-21T08:57:19;100386.31;;;27.48;63.45
33404;BME280;19751;40.274;18.268;2022-08-21T08:59:54;100385.38;;;27.52;61.52
33404;BME280;19751;40.274;18.268;2022-08-21T09:02:22;100392.72;;;27.57;61.08
33404;BME280;19751;40.274;18.268;2022-08-21T09:04:53;100382.19;;;27.59;61.13
33404;BME280;19751;40.274;18.268;2022-08-21T09:07:28;100378.81;;;27.62;62.68
33404;BME280;19751;40.274;18.268;2022-08-21T09:10:17;100383.59;;;27.70;64.02
33404;BME280;19751;40.274;18.268;2022-08-21T09:13:01;100389.84;;;27.76;63.57
33404;BME280;19751;40.274;18.268;2022-08-21T09:15:32;100381.75;;;27.80;62.81
33404;BME280;19751;40.274;18.268;2022-08-21T09:26:48;100368.25;;;27.87;64.24
33404;BME280;19751;40.274;18.268;2022-08-21T09:29:20;100360.63;;;27.84;64.36
33404;BME280;19751;40.274;18.268;2022-08-21T09:31:48;100372.16;;;27.86;65.16
33404;BME280;19751;40.274;18.268;2022-08-21T09:34:28;100363.19;;;27.80;65.08
33404;BME280;19751;40.274;18.268;2022-08-21T09:36:55;100364.63;;;27.78;65.88
33404;BME280;19751;40.274;18.268;2022-08-21T09:39:29;100369.53;;;27.81;66.31
33404;BME280;19751;40.274;18.268;2022-08-21T09:42:08;100360.28;;;27.85;66.72
33404;BME280;19751;40.274;18.268;2022-08-21T09:44:39;100372.16;;;27.86;67.00
33404;BME280;19751;40.274;18.268;2022-08-21T09:47:09;100374.66;;;27.87;66.46
33404;BME280;19751;40.274;18.268;2022-08-21T09:49:40;100360.28;;;27.85;66.16
33404;BME280;19751;40.274;18.268;2022-08-21T09:52:22;100358.13;;;27.82;66.63
33404;BME280;19751;40.274;18.268;2022-08-21T09:54:53;100349.84;;;27.82;65.59
33404;BME280;19751;40.274;18.268;2022-08-21T09:57:25;100357.72;;;27.89;65.20
33404;BME280;19751;40.274;18.268;2022-08-21T10:00:32;100348.13;;;27.95;64.13
33404;BME280;19751;40.274;18.268;2022-08-21T10:03:19;100348.13;;;27.95;64.03
33404;BME280;19751;40.274;18.268;2022-08-21T10:05:58;100339.34;;;27.93;63.69
33404;BME280;19751;40.274;18.268;2022-08-21T10:08:25;100346.69;;;27.97;62.85
33404;BME280;19751;40.274;18.268;2022-08-21T10:10:56;100375.78;;;28.09;62.33
33404;BME280;19751;40.274;18.268;2022-08-21T10:16:20;100343.75;;;28.16;62.47
33404;BME280;19751;40.274;18.268;2022-08-21T10:22:47;100345.56;;;28.21;62.20
33404;BME280;19751;40.274;18.268;2022-08-21T10:31:10;100339.44;;;28.33;60.98
33404;BME280;19751;40.274;18.268;2022-08-21T10:33:46;100352.75;;;28.31;59.03
33404;BME280;19751;40.274;18.268;2022-08-21T10:47:32;100336.56;;;28.38;57.21
33404;BME280;19751;40.274;18.268;2022-08-21T10:50:16;100323.28;;;28.35;56.26
33404;BME280;19751;40.274;18.268;2022-08-21T10:56:14;100320.13;;;28.41;57.32
33404;BME280;19751;40.274;18.268;2022-08-21T10:58:48;100323.03;;;28.45;57.92
33404;BME280;19751;40.274;18.268;2022-08-21T11:01:26;100321.78;;;28.51;58.50
33404;BME280;19751;40.274;18.268;2022-08-21T11:06:32;100304.19;;;28.56;59.76
33404;BME280;19751;40.274;18.268;2022-08-21T11:09:13;100305.50;;;28.58;59.00
33404;BME280;19751;40.274;18.268;2022-08-21T11:12:05;100303.84;;;28.57;56.93
33404;BME280;19751;40.274;18.268;2022-08-21T11:14:48;100302.22;;;28.56;56.07
33404;BME280;19751;40.274;18.268;2022-08-21T11:17:41;100298.97;;;28.54;56.34
33404;BME280;19751;40.274;18.268;2022-08-21T11:20:32;100297.19;;;28.58;57.86
33404;BME280;19751;40.274;18.268;2022-08-21T11:23:07;100288.88;;;28.58;56.66
33404;BME280;19751;40.274;18.268;2022-08-21T11:25:40;100290.34;;;28.64;56.33
33404;BME280;19751;40.274;18.268;2022-08-21T11:28:15;100279.97;;;28.70;55.29
33404;BME280;19751;40.274;18.268;2022-08-21T11:39:06;100279.13;;;28.69;53.37
33404;BME280;19751;40.274;18.268;2022-08-21T11:44:34;100293.31;;;28.77;51.70
33404;BME280;19751;40.274;18.268;2022-08-21T11:47:14;100287.78;;;28.77;49.94
33404;BME280;19751;40.274;18.268;2022-08-21T11:52:48;100280.63;;;28.84;48.60
33404;BME280;19751;40.274;18.268;2022-08-21T11:55:31;100282.78;;;28.87;48.43
33404;BME280;19751;40.274;18.268;2022-08-21T11:58:14;100270.72;;;28.92;48.07
33404;BME280;19751;40.274;18.268;2022-08-21T12:01:27;100294.50;;;28.93;46.77
33404;BME280;19751;40.274;18.268;2022-08-21T12:03:36;100274.94;;;28.89;45.70
33404;BME280;19751;40.274;18.268;2022-08-21T12:06:09;100276.06;;;28.88;44.74
33404;BME280;19751;40.274;18.268;2022-08-21T12:08:37;100273.97;;;28.94;43.98
33404;BME280;19751;40.274;18.268;2022-08-21T12:11:20;100282.16;;;28.99;43.96
33404;BME280;19751;40.274;18.268;2022-08-21T12:19:06;100259.81;;;29.04;43.71
33404;BME280;19751;40.274;18.268;2022-08-21T12:21:34;100262.25;;;29.06;43.98
33404;BME280;19751;40.274;18.268;2022-08-21T12:26:52;100263.75;;;29.12;44.07
33404;BME280;19751;40.274;18.268;2022-08-21T12:29:28;100256.56;;;29.11;43.92
33404;BME280;19751;40.274;18.268;2022-08-21T12:32:02;100252.00;;;29.15;44.96
33404;BME280;19751;40.274;18.268;2022-08-21T12:34:40;100246.59;;;29.18;45.57
33404;BME280;19751;40.274;18.268;2022-08-21T12:37:38;100254.75;;;29.23;45.99
33404;BME280;19751;40.274;18.268;2022-08-21T12:40:09;100250.69;;;29.30;45.55
33404;BME280;19751;40.274;18.268;2022-08-21T12:42:41;100245.97;;;29.30;44.92
33404;BME280;19751;40.274;18.268;2022-08-21T12:45:29;100242.22;;;29.26;44.65
33404;BME280;19751;40.274;18.268;2022-08-21T12:48:09;100239.09;;;29.28;44.81
33404;BME280;19751;40.274;18.268;2022-08-21T12:50:49;100237.47;;;29.27;44.72
33404;BME280;19751;40.274;18.268;2022-08-21T12:56:04;100227.69;;;29.29;45.27
33404;BME280;19751;40.274;18.268;2022-08-21T12:58:34;100244.31;;;29.38;45.96
33404;BME280;19751;40.274;18.268;2022-08-21T13:01:04;100218.22;;;29.39;46.34
33404;BME280;19751;40.274;18.268;2022-08-21T13:03:31;100237.28;;;29.40;46.63
33404;BME280;19751;40.274;18.268;2022-08-21T13:06:02;100235.03;;;29.42;46.91
33404;BME280;19751;40.274;18.268;2022-08-21T13:08:29;100216.91;;;29.45;45.88
33404;BME280;19751;40.274;18.268;2022-08-21T13:10:59;100223.44;;;29.49;44.28
33404;BME280;19751;40.274;18.268;2022-08-21T13:13:27;100235.50;;;29.53;44.65
33404;BME280;19751;40.274;18.268;2022-08-21T13:16:03;100233.56;;;29.62;44.31
33404;BME280;19751;40.274;18.268;2022-08-21T13:18:32;100227.47;;;29.69;44.17
33404;BME280;19751;40.274;18.268;2022-08-21T13:21:05;100231.09;;;29.69;42.98
33404;BME280;19751;40.274;18.268;2022-08-21T13:23:31;100221.94;;;29.69;43.77
33404;BME280;19751;40.274;18.268;2022-08-21T13:25:57;100223.06;;;29.77;44.45
33404;BME280;19751;40.274;18.268;2022-08-21T13:28:23;100219.63;;;29.80;44.28
33404;BME280;19751;40.274;18.268;2022-08-21T13:30:54;100232.69;;;29.79;43.33
33404;BME280;19751;40.274;18.268;2022-08-21T13:33:25;100219.31;;;29.72;42.82
33404;BME280;19751;40.274;18.268;2022-08-21T13:36:03;100216.69;;;29.76;42.60
33404;BME280;19751;40.274;18.268;2022-08-21T13:38:32;100206.22;;;29.82;41.14
33404;BME280;19751;40.274;18.268;2022-08-21T13:41:23;100223.38;;;29.84;38.80
33404;BME280;19751;40.274;18.268;2022-08-21T13:43:57;100213.91;;;29.85;39.10
33404;BME280;19751;40.274;18.268;2022-08-21T13:46:24;100212.44;;;29.87;40.86
33404;BME280;19751;40.274;18.268;2022-08-21T13:48:53;100221.22;;;29.89;42.21
33404;BME280;19751;40.274;18.268;2022-08-21T13:51:19;100236.56;;;29.95;42.85
33404;BME280;19751;40.274;18.268;2022-08-21T13:53:47;100217.44;;;29.94;42.96
33404;BME280;19751;40.274;18.268;2022-08-21T13:58:56;100210.59;;;30.00;41.85